Time;durP1;ratioP1;P1;durP2;ratioP2;P2;SDS_P1;SDS_P2;PMS_P1;PMS_P2;Temp;Humidity;BMP_temperature;BMP_pressure;BME280_temperature;BME280_humidity;BME280_pressure;Samples;Min_cycle;Max_cycle;Signal;HPM_P1;HPM_P2
2022/12/05 00:01:26;;;;;;;10.63;5.40;;;5.30;99.90;;;;;;5060273;28;20048;-64
2022/12/05 00:03:56;;;;;;;7.43;5.47;;;5.30;99.90;;;;;;5070160;28;20052;-65
2022/12/05 00:06:25;;;;;;;8.15;4.70;;;5.30;99.90;;;;;;5052558;28;20055;-63
2022/12/05 00:08:53;;;;;;;11.20;5.77;;;5.30;99.90;;;;;;5061777;28;20049;-63
2022/12/05 00:11:24;;;;;;;9.45;5.47;;;5.20;99.90;;;;;;5065100;28;20059;-59
2022/12/05 00:13:54;;;;;;;12.32;5.78;;;5.30;99.90;;;;;;5062732;28;20044;-60
2022/12/05 00:16:23;;;;;;;;;;;5.30;99.90;;;;;;5060929;28;20078;-60
2022/12/05 00:18:51;;;;;;;11.52;4.75;;;5.30;99.90;;;;;;5052840;28;19924;-60
2022/12/05 00:21:23;;;;;;;9.43;5.47;;;5.20;99.90;;;;;;5059985;28;20068;-60
2022/12/05 00:23:52;;;;;;;11.55;5.55;;;5.20;99.90;;;;;;5048960;28;20506;-60
2022/12/05 00:26:20;;;;;;;10.00;5.18;;;5.30;99.90;;;;;;5066532;28;20254;-60
2022/12/05 00:28:48;;;;;;;9.15;5.13;;;5.20;99.90;;;;;;5049622;28;20049;-60
2022/12/05 00:31:21;;;;;;;10.27;4.72;;;5.20;99.90;;;;;;5052022;28;20037;-61
2022/12/05 00:33:50;;;;;;;9.35;5.25;;;5.20;99.90;;;;;;5063442;28;20418;-57
2022/12/05 00:36:23;;;;;;;10.40;5.60;;;5.20;99.90;;;;;;5060331;28;20396;-59
2022/12/05 00:38:51;;;;;;;9.93;5.03;;;5.10;99.90;;;;;;5068887;28;20044;-59
2022/12/05 00:41:22;;;;;;;11.40;5.90;;;5.10;99.90;;;;;;5064060;28;20056;-61
2022/12/05 00:43:51;;;;;;;9.65;5.82;;;5.10;99.90;;;;;;5049739;28;20045;-60
2022/12/05 00:46:23;;;;;;;12.48;6.00;;;5.20;99.90;;;;;;5050273;28;20055;-61
2022/12/05 00:48:55;;;;;;;12.13;6.72;;;5.20;99.90;;;;;;5062170;28;20361;-60
2022/12/05 00:51:28;;;;;;;11.77;6.30;;;5.20;99.90;;;;;;5068043;28;20060;-60
2022/12/05 00:54:01;;;;;;;12.70;6.30;;;5.20;99.90;;;;;;5069371;28;20415;-63
2022/12/05 00:56:30;;;;;;;12.65;6.60;;;5.20;99.90;;;;;;5065518;28;20047;-60
2022/12/05 00:58:59;;;;;;;17.70;6.30;;;5.20;99.90;;;;;;5067339;28;20498;-60
2022/12/05 01:01:39;;;;;;;16.30;6.38;;;5.20;99.90;;;;;;5066255;28;20048;-59
2022/12/05 01:04:10;;;;;;;12.63;6.25;;;5.20;99.90;;;;;;5045763;28;20044;-60
2022/12/05 01:06:38;;;;;;;12.90;6.43;;;5.20;99.90;;;;;;5053307;28;20052;-60
2022/12/05 01:09:07;;;;;;;10.45;5.90;;;5.20;99.90;;;;;;5066153;28;20060;-59
2022/12/05 01:11:35;;;;;;;18.00;6.67;;;5.10;99.90;;;;;;5059018;28;20041;-59
2022/12/05 01:14:16;;;;;;;12.38;6.43;;;5.10;99.90;;;;;;5052477;28;20353;-60
2022/12/05 01:16:46;;;;;;;14.60;6.97;;;5.20;99.90;;;;;;5059307;28;20052;-60
2022/12/05 01:19:22;;;;;;;;;;;5.20;99.90;;;;;;5050036;28;20067;-60
2022/12/05 01:21:49;;;;;;;15.45;6.85;;;5.20;99.90;;;;;;5063969;28;19921;-61
2022/12/05 01:24:18;;;;;;;12.43;6.30;;;5.20;99.90;;;;;;5062991;28;20060;-60
2022/12/05 01:26:46;;;;;;;13.68;6.40;;;5.20;99.90;;;;;;5056523;28;20514;-60
2022/12/05 01:29:16;;;;;;;16.98;5.93;;;5.20;99.90;;;;;;5060938;28;20496;-60
2022/12/05 01:31:44;;;;;;;;;;;5.10;99.90;;;;;;5066469;28;20055;-59
2022/12/05 01:34:14;;;;;;;17.88;6.55;;;5.10;99.90;;;;;;5066236;28;19920;-59
2022/12/05 01:36:42;;;;;;;17.17;7.43;;;5.10;99.90;;;;;;5051953;28;20518;-60
2022/12/05 01:39:12;;;;;;;13.32;6.55;;;5.10;99.90;;;;;;5068125;28;20044;-59
2022/12/05 01:41:49;;;;;;;;;;;5.10;99.90;;;;;;5059017;28;21608;-60
2022/12/05 01:44:16;;;;;;;16.33;7.70;;;5.10;99.90;;;;;;5048462;28;19929;-61
2022/12/05 01:46:47;;;;;;;15.55;7.03;;;5.10;99.90;;;;;;5054557;28;20427;-63
2022/12/05 01:49:18;;;;;;;13.38;6.68;;;5.20;99.90;;;;;;5049750;28;20059;-60
2022/12/05 01:51:52;;;;;;;12.43;6.70;;;5.20;99.90;;;;;;5067420;28;20075;-60
2022/12/05 01:54:21;;;;;;;15.73;6.03;;;5.20;99.90;;;;;;5050109;28;20500;-61
2022/12/05 01:56:57;;;;;;;14.55;5.93;;;5.20;99.90;;;;;;5053251;28;20040;-60
2022/12/05 01:59:29;;;;;;;14.02;6.57;;;5.30;99.90;;;;;;5061777;28;20048;-59
2022/12/05 02:01:57;;;;;;;17.85;6.53;;;5.30;99.90;;;;;;5063563;28;20033;-59
2022/12/05 02:04:26;;;;;;;15.32;6.53;;;5.30;99.90;;;;;;5054827;28;20044;-59
2022/12/05 02:06:54;;;;;;;14.23;6.05;;;5.30;99.90;;;;;;5063161;28;20070;-59
2022/12/05 02:09:22;;;;;;;33.90;8.38;;;5.30;99.90;;;;;;5063398;28;20091;-60
2022/12/05 02:11:56;;;;;;;12.40;6.20;;;5.40;99.90;;;;;;5063085;28;20376;-59
2022/12/05 02:14:36;;;;;;;10.00;5.82;;;5.40;99.90;;;;;;5059774;28;20048;-59
2022/12/05 02:17:26;;;;;;;11.23;5.22;;;5.40;99.90;;;;;;5055697;28;20079;-61
2022/12/05 02:20:29;;;;;;;11.77;6.18;;;5.40;99.90;;;;;;5050858;28;20055;-59
2022/12/05 02:23:30;;;;;;;10.23;6.30;;;5.40;99.90;;;;;;5002700;28;20559;-60
2022/12/05 02:25:58;;;;;;;11.75;5.68;;;5.40;99.90;;;;;;5044513;28;20048;-61
2022/12/05 02:28:41;;;;;;;9.43;5.95;;;5.40;99.90;;;;;;5059192;28;20048;-64
2022/12/05 02:31:28;;;;;;;11.02;5.25;;;5.40;99.90;;;;;;5054997;28;20037;-63
2022/12/05 02:34:02;;;;;;;10.00;5.10;;;5.50;99.90;;;;;;5055491;28;20046;-64
2022/12/05 02:36:44;;;;;;;10.55;4.97;;;5.50;99.90;;;;;;5064193;28;20503;-63
2022/12/05 02:39:20;;;;;;;11.85;5.78;;;5.50;99.90;;;;;;5071057;28;20044;-64
2022/12/05 02:41:53;;;;;;;11.88;5.20;;;5.50;99.90;;;;;;5051246;28;20040;-64
2022/12/05 02:44:41;;;;;;;11.80;5.55;;;5.50;99.90;;;;;;5059562;28;20483;-63
2022/12/05 02:47:12;;;;;;;10.85;5.80;;;5.50;99.90;;;;;;5067064;28;20044;-60
2022/12/05 02:49:41;;;;;;;13.13;5.15;;;5.50;99.90;;;;;;5058396;28;20049;-59
2022/12/05 02:52:12;;;;;;;13.52;5.45;;;5.50;99.90;;;;;;5071384;28;20049;-59
2022/12/05 02:54:43;;;;;;;11.90;5.22;;;5.50;99.90;;;;;;5059376;28;20057;-59
2022/12/05 02:57:12;;;;;;;13.00;5.28;;;5.60;99.90;;;;;;5050969;28;20056;-59
2022/12/05 02:59:40;;;;;;;9.15;4.90;;;5.50;99.90;;;;;;5066904;28;20064;-60
2022/12/05 03:02:21;;;;;;;8.90;4.43;;;5.50;99.90;;;;;;5067505;28;20056;-59
2022/12/05 03:04:49;;;;;;;11.65;4.70;;;5.50;99.90;;;;;;5058191;28;20103;-59
2022/12/05 03:07:19;;;;;;;9.95;4.75;;;5.50;99.90;;;;;;5060540;28;20071;-59
2022/12/05 03:09:53;;;;;;;12.15;4.88;;;5.50;99.90;;;;;;5062363;28;20488;-60
2022/12/05 03:12:34;;;;;;;11.95;4.85;;;5.50;99.90;;;;;;5055737;28;20047;-58
2022/12/05 03:15:18;;;;;;;8.65;5.03;;;5.50;99.90;;;;;;5066923;28;20057;-59
2022/12/05 03:18:05;;;;;;;8.98;5.10;;;5.40;99.90;;;;;;5060375;28;20052;-59
2022/12/05 03:20:38;;;;;;;8.77;4.75;;;5.40;99.90;;;;;;5053230;28;20877;-60
2022/12/05 03:23:22;;;;;;;13.70;5.20;;;5.50;99.90;;;;;;5056260;28;20040;-61
2022/12/05 03:25:59;;;;;;;9.25;4.97;;;5.40;99.90;;;;;;5056972;28;20041;-60
2022/12/05 03:28:52;;;;;;;10.90;4.47;;;5.40;99.90;;;;;;5054078;28;20049;-61
2022/12/05 03:31:31;;;;;;;10.02;4.95;;;5.40;99.90;;;;;;5056638;28;20036;-58
2022/12/05 03:34:02;;;;;;;10.00;5.65;;;5.40;99.90;;;;;;5055877;28;20611;-59
2022/12/05 03:36:38;;;;;;;14.65;6.15;;;5.50;99.90;;;;;;5063885;28;20048;-59
2022/12/05 03:39:12;;;;;;;11.48;5.45;;;5.40;99.90;;;;;;5073675;28;20052;-59
2022/12/05 03:41:49;;;;;;;12.13;5.65;;;5.40;99.90;;;;;;5063249;28;20052;-57
2022/12/05 03:44:25;;;;;;;12.32;4.50;;;5.40;99.90;;;;;;5062109;28;20041;-59
2022/12/05 03:47:18;;;;;;;10.68;4.50;;;5.40;99.90;;;;;;5055600;28;20407;-59
2022/12/05 03:49:54;;;;;;;16.80;4.78;;;5.40;99.90;;;;;;5067978;28;20542;-59
2022/12/05 03:52:54;;;;;;;10.73;5.38;;;5.40;99.90;;;;;;5069962;28;20048;-59
2022/12/05 03:55:46;;;;;;;10.93;4.32;;;5.50;99.90;;;;;;5050815;28;20064;-60
2022/12/05 03:58:44;;;;;;;8.25;4.32;;;5.50;99.90;;;;;;5055929;28;20052;-59
2022/12/05 04:01:15;;;;;;;9.60;4.60;;;5.50;99.90;;;;;;5053478;28;20053;-61
2022/12/05 04:03:55;;;;;;;16.10;4.75;;;5.40;99.90;;;;;;5060417;28;20051;-58
2022/12/05 04:06:31;;;;;;;17.20;5.43;;;5.50;99.90;;;;;;5061343;28;20045;-59
2022/12/05 04:09:07;;;;;;;12.93;5.30;;;5.50;99.90;;;;;;5066321;28;20040;-59
2022/12/05 04:11:49;;;;;;;12.73;5.40;;;5.50;99.90;;;;;;5052746;28;20045;-60
2022/12/05 04:14:27;;;;;;;14.25;5.43;;;5.50;99.90;;;;;;5056223;28;20373;-58
2022/12/05 04:17:17;;;;;;;15.00;5.47;;;5.40;99.90;;;;;;5069875;28;20048;-59
2022/12/05 04:22:37;;;;;;;14.32;4.72;;;5.40;99.90;;;;;;5051384;28;20052;-60
2022/12/05 04:28:15;;;;;;;12.30;4.20;;;5.40;99.90;;;;;;5070654;28;20056;-60
2022/12/05 04:30:51;;;;;;;7.93;4.40;;;5.40;99.90;;;;;;5069128;28;20044;-61
2022/12/05 04:33:21;;;;;;;10.18;3.78;;;5.40;99.90;;;;;;5072698;28;20045;-62
2022/12/05 04:35:54;;;;;;;11.38;4.18;;;5.40;99.90;;;;;;5060891;28;20048;-63
2022/12/05 04:38:28;;;;;;;13.25;4.88;;;5.30;99.90;;;;;;5053647;28;20045;-62
2022/12/05 04:41:02;;;;;;;10.93;4.15;;;5.40;99.90;;;;;;5071628;28;20048;-62
2022/12/05 04:43:34;;;;;;;9.13;4.65;;;5.40;99.90;;;;;;5062670;28;20045;-61
2022/12/05 04:46:05;;;;;;;15.00;4.85;;;5.40;99.90;;;;;;5052294;28;20049;-63
2022/12/05 04:48:37;;;;;;;11.98;4.40;;;5.40;99.90;;;;;;5051043;28;20045;-63
2022/12/05 04:51:15;;;;;;;8.23;4.38;;;5.40;99.90;;;;;;5052121;28;20049;-64
2022/12/05 04:53:44;;;;;;;17.10;4.95;;;5.50;99.90;;;;;;5058543;28;20040;-63
2022/12/05 04:56:15;;;;;;;;;;;5.40;99.90;;;;;;5066399;28;20056;-64
2022/12/05 04:58:42;;;;;;;7.97;3.95;;;5.50;99.90;;;;;;5072494;28;19925;-63
2022/12/05 05:01:34;;;;;;;7.82;3.42;;;5.50;99.90;;;;;;5071769;28;20055;-62
2022/12/05 05:04:11;;;;;;;11.18;3.55;;;5.50;99.90;;;;;;5062024;28;20041;-64
2022/12/05 05:06:40;;;;;;;9.68;4.00;;;5.40;99.90;;;;;;5067600;28;20052;-64
2022/12/05 05:09:09;;;;;;;10.32;4.03;;;5.50;99.90;;;;;;5068403;28;20040;-65
2022/12/05 05:11:37;;;;;;;9.80;3.60;;;5.40;99.90;;;;;;5068942;28;20041;-63
2022/12/05 05:14:04;;;;;;;8.35;3.13;;;5.40;99.90;;;;;;5071447;28;20033;-64
2022/12/05 05:16:38;;;;;;;11.23;3.40;;;5.30;99.90;;;;;;5056315;28;20052;-63
2022/12/05 05:19:07;;;;;;;11.75;3.15;;;5.30;99.90;;;;;;5052031;28;20052;-65
2022/12/05 05:21:38;;;;;;;6.80;2.90;;;5.20;99.90;;;;;;5052648;28;20053;-60
2022/12/05 05:24:08;;;;;;;8.95;3.30;;;5.20;99.90;;;;;;5066520;28;20041;-60
2022/12/05 05:26:38;;;;;;;6.63;3.30;;;5.10;99.90;;;;;;5071930;28;20059;-59
2022/12/05 05:29:06;;;;;;;8.25;2.95;;;5.10;99.90;;;;;;5070913;28;20044;-60
2022/12/05 05:31:34;;;;;;;11.93;3.25;;;5.10;99.90;;;;;;5071925;28;20056;-61
2022/12/05 05:34:03;;;;;;;6.38;3.42;;;5.10;99.90;;;;;;5060387;28;20396;-60
2022/12/05 05:36:37;;;;;;;6.18;3.22;;;5.10;99.90;;;;;;5051936;28;20537;-59
2022/12/05 05:39:05;;;;;;;9.52;3.13;;;5.00;99.90;;;;;;5061829;28;20048;-60
2022/12/05 05:41:35;;;;;;;18.92;3.60;;;5.00;99.90;;;;;;5067488;28;20439;-61
2022/12/05 05:44:03;;;;;;;5.03;2.92;;;5.00;99.90;;;;;;5056383;28;20048;-58
2022/12/05 05:46:33;;;;;;;5.90;3.15;;;4.90;99.90;;;;;;5062391;28;20049;-60
2022/12/05 05:49:01;;;;;;;;;;;4.90;99.90;;;;;;5057103;28;20083;-63
2022/12/05 05:51:29;;;;;;;5.32;2.38;;;4.90;99.90;;;;;;5053791;28;20372;-62
2022/12/05 05:53:58;;;;;;;8.00;2.78;;;4.90;99.90;;;;;;5048271;28;20075;-62
2022/12/05 05:56:27;;;;;;;4.60;2.40;;;4.80;99.90;;;;;;5048562;28;20392;-64
2022/12/05 05:58:57;;;;;;;5.93;2.20;;;4.80;99.90;;;;;;5052750;28;20365;-61
2022/12/05 06:01:25;;;;;;;7.50;2.55;;;4.90;99.90;;;;;;5063820;28;20051;-60
2022/12/05 06:03:52;;;;;;;5.78;2.55;;;4.80;99.90;;;;;;5047329;28;20054;-62
2022/12/05 06:06:21;;;;;;;8.73;2.80;;;4.80;99.90;;;;;;5053609;28;20036;-59
2022/12/05 06:08:49;;;;;;;7.47;2.80;;;4.80;99.90;;;;;;5062983;28;20063;-59
2022/12/05 06:11:20;;;;;;;8.30;2.38;;;4.80;99.90;;;;;;5065342;28;20055;-60
2022/12/05 06:13:54;;;;;;;4.57;1.95;;;4.80;99.90;;;;;;5064192;28;20063;-59
2022/12/05 06:16:22;;;;;;;7.65;2.50;;;4.90;99.90;;;;;;5061422;28;20036;-59
2022/12/05 06:18:51;;;;;;;5.00;2.35;;;4.90;99.90;;;;;;5062291;28;20041;-58
2022/12/05 06:21:19;;;;;;;4.00;2.00;;;4.90;99.90;;;;;;5062883;28;20056;-58
2022/12/05 06:23:47;;;;;;;8.13;1.88;;;4.90;99.90;;;;;;5059305;28;20037;-60
2022/12/05 06:26:18;;;;;;;10.07;3.67;;;4.90;99.90;;;;;;5062467;28;20052;-60
2022/12/05 06:28:46;;;;;;;9.68;2.67;;;4.80;99.90;;;;;;5066988;28;20037;-59
2022/12/05 06:31:17;;;;;;;8.30;2.67;;;4.80;99.90;;;;;;5065117;28;20052;-59
2022/12/05 06:33:45;;;;;;;10.48;2.47;;;4.80;99.90;;;;;;5057644;28;20049;-60
2022/12/05 06:36:15;;;;;;;7.57;2.20;;;4.80;99.90;;;;;;5055696;28;20543;-60
2022/12/05 06:38:43;;;;;;;9.90;2.33;;;4.80;99.90;;;;;;5060963;28;20052;-57
2022/12/05 06:41:14;;;;;;;8.40;2.28;;;4.80;99.90;;;;;;5064895;28;20045;-59
2022/12/05 06:43:42;;;;;;;15.52;2.78;;;4.70;99.90;;;;;;5064276;28;20061;-59
2022/12/05 06:46:11;;;;;;;11.82;3.72;;;4.70;99.90;;;;;;5065478;28;20049;-59
2022/12/05 06:48:39;;;;;;;9.27;2.10;;;4.70;99.90;;;;;;5053623;28;20373;-59
2022/12/05 06:51:10;;;;;;;9.77;2.13;;;4.70;99.90;;;;;;5060907;28;20057;-59
2022/12/05 06:53:38;;;;;;;8.60;2.40;;;4.60;99.90;;;;;;5067242;28;20044;-60
2022/12/05 06:56:15;;;;;;;6.80;1.90;;;4.60;99.90;;;;;;5067966;28;20052;-60
2022/12/05 06:58:47;;;;;;;6.32;1.98;;;4.70;99.90;;;;;;5067363;28;20372;-59
2022/12/05 07:04:07;;;;;;;11.82;2.85;;;4.80;99.90;;;;;;5059916;28;20411;-59
2022/12/05 07:06:35;;;;;;;9.15;2.92;;;4.80;99.90;;;;;;5063566;28;20053;-61
2022/12/05 07:09:03;;;;;;;5.95;2.70;;;4.80;99.90;;;;;;5065592;28;20047;-60
2022/12/05 07:11:32;;;;;;;7.95;3.30;;;4.80;99.90;;;;;;5066913;28;20040;-60
2022/12/05 07:14:00;;;;;;;5.80;2.50;;;4.70;99.90;;;;;;5066005;28;20052;-60
2022/12/05 07:16:41;;;;;;;6.88;3.13;;;4.70;99.90;;;;;;5065885;28;20060;-63
2022/12/05 07:19:09;;;;;;;4.68;2.78;;;4.60;99.90;;;;;;5057115;28;20057;-61
2022/12/05 07:21:38;;;;;;;14.83;4.20;;;4.60;99.90;;;;;;5048828;28;20052;-60
2022/12/05 07:24:05;;;;;;;9.38;3.00;;;4.50;99.90;;;;;;5064700;28;20048;-60
2022/12/05 07:26:33;;;;;;;8.10;2.45;;;4.50;99.90;;;;;;5057914;28;20048;-62
2022/12/05 07:29:00;;;;;;;8.18;2.20;;;4.50;99.90;;;;;;5060810;28;20045;-59
2022/12/05 07:31:28;;;;;;;7.95;3.00;;;4.50;99.90;;;;;;5064608;28;20059;-60
2022/12/05 07:33:56;;;;;;;11.73;2.83;;;4.40;99.90;;;;;;5061552;28;20049;-63
2022/12/05 07:36:24;;;;;;;9.30;2.50;;;4.40;99.90;;;;;;5062254;28;20068;-64
2022/12/05 07:38:56;;;;;;;7.10;2.42;;;4.40;99.90;;;;;;5062434;28;20381;-59
2022/12/05 07:41:26;;;;;;;5.47;2.15;;;4.40;99.90;;;;;;5068535;28;20049;-64
2022/12/05 07:43:56;;;;;;;6.22;2.45;;;4.40;99.90;;;;;;5063454;28;20052;-65
2022/12/05 07:46:25;;;;;;;;;;;4.30;99.90;;;;;;5066329;28;20435;-63
2022/12/05 07:48:54;;;;;;;5.72;2.38;;;4.30;99.90;;;;;;5056883;28;19928;-63
2022/12/05 07:51:22;;;;;;;9.73;2.65;;;4.40;99.90;;;;;;5050762;28;20404;-64
2022/12/05 07:53:50;;;;;;;5.32;2.42;;;4.30;99.90;;;;;;5062970;28;20070;-59
2022/12/05 07:56:18;;;;;;;10.80;1.90;;;4.30;99.90;;;;;;5062586;28;20041;-61
2022/12/05 07:58:47;;;;;;;5.35;2.40;;;4.20;99.90;;;;;;5052941;28;20045;-60
2022/12/05 08:01:20;;;;;;;7.38;2.40;;;4.30;99.90;;;;;;5048653;28;20048;-60
2022/12/05 08:03:51;;;;;;;6.35;2.28;;;4.30;99.90;;;;;;5047063;28;20045;-61
2022/12/05 08:06:21;;;;;;;4.50;2.35;;;4.30;99.90;;;;;;5048352;28;20036;-60
2022/12/05 08:08:50;;;;;;;4.70;2.22;;;4.40;99.90;;;;;;5052734;28;20380;-59
2022/12/05 08:11:20;;;;;;;13.00;3.08;;;4.40;99.90;;;;;;5062159;28;20045;-59
2022/12/05 08:13:49;;;;;;;5.65;2.28;;;4.50;99.90;;;;;;5064382;28;20049;-60
2022/12/05 08:16:19;;;;;;;7.50;2.33;;;4.50;99.90;;;;;;5060370;28;20049;-60
2022/12/05 08:18:47;;;;;;;6.60;2.42;;;4.60;99.90;;;;;;5054891;28;20500;-60
2022/12/05 08:21:17;;;;;;;5.93;2.53;;;4.60;99.90;;;;;;5051230;28;20065;-59
2022/12/05 08:23:46;;;;;;;4.20;2.13;;;4.70;99.90;;;;;;5047109;28;20045;-59
2022/12/05 08:26:17;;;;;;;4.95;2.78;;;4.70;99.90;;;;;;5049303;28;20064;-59
2022/12/05 08:28:45;;;;;;;5.00;2.33;;;4.70;99.90;;;;;;5050345;28;20049;-59
2022/12/05 08:31:16;;;;;;;7.72;2.83;;;4.80;99.90;;;;;;5058101;28;20037;-60
2022/12/05 08:33:44;;;;;;;7.65;2.55;;;4.80;99.90;;;;;;5047758;28;20052;-58
2022/12/05 08:36:14;;;;;;;7.50;2.42;;;4.80;99.90;;;;;;5049073;28;20041;-59
2022/12/05 08:38:43;;;;;;;7.70;2.75;;;4.90;99.90;;;;;;5062409;28;20047;-60
2022/12/05 08:41:14;;;;;;;7.00;2.78;;;4.90;99.90;;;;;;5069634;28;20521;-60
2022/12/05 08:43:42;;;;;;;7.20;2.50;;;5.00;99.90;;;;;;5067304;28;20037;-60
2022/12/05 08:46:11;;;;;;;6.15;2.10;;;5.00;99.90;;;;;;5063488;28;20048;-60
2022/12/05 08:48:39;;;;;;;5.85;2.10;;;5.10;99.90;;;;;;5060067;28;20056;-60
2022/12/05 08:51:09;;;;;;;5.72;2.10;;;5.20;99.90;;;;;;5064406;28;20048;-59
2022/12/05 08:53:37;;;;;;;8.93;2.35;;;5.20;99.90;;;;;;5061912;28;20051;-60
2022/12/05 08:56:11;;;;;;;6.30;1.65;;;5.30;99.90;;;;;;5066131;28;20517;-58
2022/12/05 08:58:39;;;;;;;4.15;1.75;;;5.40;99.90;;;;;;5060339;28;20041;-59
2022/12/05 09:01:08;;;;;;;5.63;1.85;;;5.50;99.90;;;;;;5062230;28;20044;-58
2022/12/05 09:03:36;;;;;;;8.82;2.17;;;5.50;99.90;;;;;;5062337;28;20051;-60
2022/12/05 09:06:15;;;;;;;5.72;2.40;;;5.50;99.90;;;;;;5057092;28;20051;-61
2022/12/05 09:08:43;;;;;;;4.03;1.88;;;5.50;99.90;;;;;;5061928;28;20790;-59
2022/12/05 09:11:17;;;;;;;7.07;2.15;;;5.60;99.90;;;;;;5069007;28;20055;-59
2022/12/05 09:13:47;;;;;;;3.75;2.20;;;5.60;99.90;;;;;;5062093;28;20044;-59
2022/12/05 09:16:20;;;;;;;10.00;2.10;;;5.70;99.90;;;;;;5056398;28;20772;-61
2022/12/05 09:18:49;;;;;;;4.18;2.08;;;5.60;99.90;;;;;;5068432;28;20048;-59
2022/12/05 09:21:20;;;;;;;7.50;2.35;;;5.70;99.90;;;;;;5055838;28;20056;-63
2022/12/05 09:23:48;;;;;;;7.03;2.25;;;5.70;99.90;;;;;;5063629;28;20430;-61
2022/12/05 09:26:21;;;;;;;6.50;3.05;;;5.80;99.90;;;;;;5068604;28;20044;-64
2022/12/05 09:28:50;;;;;;;10.23;2.58;;;5.70;99.90;;;;;;5068646;28;20056;-59
2022/12/05 09:31:24;;;;;;;17.90;4.22;;;5.70;99.90;;;;;;5068599;28;20045;-59
2022/12/05 09:33:52;;;;;;;9.48;2.90;;;5.70;99.90;;;;;;5065182;28;20047;-59
2022/12/05 09:36:23;;;;;;;8.07;2.92;;;5.80;99.90;;;;;;5038317;28;20053;-60
2022/12/05 09:38:52;;;;;;;8.48;2.58;;;5.80;99.90;;;;;;5062147;28;20738;-60
2022/12/05 09:42:11;;;;;;;8.97;2.30;;;5.90;99.90;;;;;;5068434;28;20045;-58
2022/12/05 09:44:58;;;;;;;;;;;5.90;99.90;;;;;;5026493;28;20298;-59
2022/12/05 09:47:31;;;;;;;4.45;2.50;;;6.00;99.90;;;;;;5024062;28;19931;-59
2022/12/05 09:50:12;;;;;;;6.57;2.85;;;6.00;99.90;;;;;;5056444;28;20056;-58
2022/12/05 09:53:01;;;;;;;6.78;2.92;;;6.00;99.90;;;;;;5054428;28;20044;-59
2022/12/05 09:56:08;;;;;;;6.85;2.75;;;6.10;99.90;;;;;;5068232;28;20048;-61
2022/12/05 09:58:50;;;;;;;9.95;2.60;;;6.10;99.90;;;;;;5051783;28;20071;-59
2022/12/05 10:01:28;;;;;;;8.73;2.70;;;6.10;99.90;;;;;;5061299;28;20045;-59
2022/12/05 10:04:05;;;;;;;7.63;2.40;;;6.10;99.90;;;;;;5060551;28;20040;-63
2022/12/05 10:06:47;;;;;;;9.80;2.78;;;6.10;99.90;;;;;;5063423;28;20051;-63
2022/12/05 10:09:32;;;;;;;8.23;2.50;;;6.20;99.90;;;;;;5063637;28;20052;-64
2022/12/05 10:12:27;;;;;;;5.43;3.00;;;6.20;99.90;;;;;;5067811;28;20044;-62
2022/12/05 10:15:09;;;;;;;6.70;2.40;;;6.20;99.90;;;;;;5063172;28;20044;-63
2022/12/05 10:17:41;;;;;;;12.05;2.75;;;6.20;99.90;;;;;;5049258;28;20037;-62
2022/12/05 10:20:15;;;;;;;10.07;2.13;;;6.30;99.90;;;;;;5064304;28;20048;-63
2022/12/05 10:22:53;;;;;;;11.32;2.40;;;6.30;99.90;;;;;;5052147;28;20051;-63
2022/12/05 10:25:23;;;;;;;5.93;2.00;;;6.30;99.90;;;;;;5068285;28;20051;-64
2022/12/05 10:27:55;;;;;;;4.13;2.55;;;6.40;99.90;;;;;;5061896;28;20472;-62
2022/12/05 10:30:25;;;;;;;5.65;2.58;;;6.40;99.90;;;;;;5055374;28;20044;-60
2022/12/05 10:33:01;;;;;;;9.15;3.00;;;6.50;99.90;;;;;;5049960;28;20426;-59
2022/12/05 10:35:38;;;;;;;7.50;2.38;;;6.40;99.90;;;;;;5064713;28;20511;-60
2022/12/05 10:38:23;;;;;;;6.82;2.85;;;6.50;99.90;;;;;;5055261;28;20488;-58
2022/12/05 10:40:56;;;;;;;5.32;2.53;;;6.60;99.90;;;;;;5055823;28;20045;-58
2022/12/05 10:43:28;;;;;;;8.90;2.78;;;6.60;99.90;;;;;;5059375;28;20131;-59
2022/12/05 10:45:57;;;;;;;10.57;3.05;;;6.60;99.90;;;;;;5067929;28;20040;-59
2022/12/05 10:48:25;;;;;;;9.32;3.45;;;6.60;99.90;;;;;;5067364;28;20517;-57
2022/12/05 10:50:56;;;;;;;9.85;3.00;;;6.60;99.90;;;;;;5063482;28;20041;-58
2022/12/05 10:53:48;;;;;;;6.07;2.92;;;6.60;99.90;;;;;;5058704;28;20508;-58
2022/12/05 10:56:36;;;;;;;8.63;3.30;;;6.70;99.90;;;;;;5067830;28;20052;-60
2022/12/05 10:59:05;;;;;;;5.85;2.85;;;6.70;99.90;;;;;;5068023;28;20412;-62
2022/12/05 11:01:35;;;;;;;6.00;2.28;;;6.70;99.90;;;;;;5071911;28;20589;-60
2022/12/05 11:04:07;;;;;;;;;;;6.70;99.90;;;;;;5070367;28;20060;-63
2022/12/05 11:06:51;;;;;;;6.38;2.55;;;6.70;99.90;;;;;;5069657;28;19921;-62
2022/12/05 11:09:21;;;;;;;6.50;2.17;;;6.70;99.90;;;;;;5071192;28;20415;-59
2022/12/05 11:12:19;;;;;;;8.00;2.83;;;6.70;99.90;;;;;;5071401;28;20056;-59
2022/12/05 11:15:21;;;;;;;7.07;2.53;;;6.70;99.90;;;;;;5070900;28;20524;-59
2022/12/05 11:17:50;;;;;;;10.98;2.97;;;6.80;99.90;;;;;;5070819;28;20064;-59
2022/12/05 11:20:18;;;;;;;8.70;2.53;;;6.80;99.90;;;;;;5063414;28;20064;-60
2022/12/05 11:22:48;;;;;;;7.93;2.78;;;6.90;99.90;;;;;;5057152;28;20048;-60
2022/12/05 11:25:34;;;;;;;10.13;2.60;;;6.80;99.90;;;;;;5071365;28;20057;-59
2022/12/05 11:28:17;;;;;;;8.13;2.80;;;6.90;99.90;;;;;;5070809;28;20049;-58
2022/12/05 11:31:01;;;;;;;6.40;2.50;;;6.90;99.90;;;;;;5071254;28;20048;-59
2022/12/05 11:33:32;;;;;;;6.65;2.60;;;6.90;99.90;;;;;;5069266;28;20059;-60
2022/12/05 11:36:19;;;;;;;;;;;6.90;99.90;;;;;;5049883;28;20064;-59
2022/12/05 11:38:47;;;;;;;4.88;2.33;;;7.00;99.90;;;;;;5063843;28;20398;-59
2022/12/05 11:41:32;;;;;;;15.38;3.22;;;7.00;99.90;;;;;;5068938;28;20048;-61
2022/12/05 11:44:09;;;;;;;6.32;3.00;;;7.00;99.90;;;;;;5070386;28;20399;-60
2022/12/05 11:47:07;;;;;;;7.72;2.47;;;7.10;99.90;;;;;;5065614;28;20040;-58
2022/12/05 11:50:03;;;;;;;9.88;2.42;;;7.10;99.90;;;;;;5069881;28;20052;-61
2022/12/05 11:52:37;;;;;;;8.98;2.75;;;7.10;99.90;;;;;;5060285;28;20044;-59
2022/12/05 11:55:25;;;;;;;13.20;2.75;;;7.10;99.90;;;;;;5070419;28;20044;-59
2022/12/05 11:58:04;;;;;;;8.32;2.47;;;7.20;99.90;;;;;;5070391;28;20480;-61
2022/12/05 12:00:52;;;;;;;7.75;2.40;;;7.20;99.90;;;;;;5056232;28;20045;-64
2022/12/05 12:03:49;;;;;;;7.45;2.10;;;7.30;99.90;;;;;;5060706;28;20052;-59
2022/12/05 12:06:42;;;;;;;5.47;2.83;;;7.20;99.90;;;;;;5067389;28;20492;-59
2022/12/05 12:09:22;;;;;;;8.50;2.35;;;7.30;99.90;;;;;;5065689;28;20053;-58
2022/12/05 12:12:05;;;;;;;16.90;3.30;;;7.10;99.90;;;;;;5070281;28;20045;-59
2022/12/05 12:14:41;;;;;;;6.10;2.33;;;7.30;99.90;;;;;;5054350;28;20419;-59
2022/12/05 12:17:18;;;;;;;9.20;2.70;;;7.30;99.90;;;;;;5049599;28;20059;-60
2022/12/05 12:20:04;;;;;;;8.50;2.65;;;7.30;99.90;;;;;;5049992;28;20056;-59
2022/12/05 12:22:55;;;;;;;7.68;2.35;;;7.30;99.90;;;;;;5053889;28;20503;-58
2022/12/05 12:25:32;;;;;;;9.05;2.80;;;7.30;99.90;;;;;;5069863;28;20051;-59
2022/12/05 12:28:18;;;;;;;8.90;3.20;;;7.40;99.90;;;;;;5069465;28;20048;-59
2022/12/05 12:31:12;;;;;;;7.47;3.17;;;7.40;99.90;;;;;;5038904;28;20048;-59
2022/12/05 12:34:01;;;;;;;7.32;2.88;;;7.40;99.90;;;;;;5062695;28;20053;-58
2022/12/05 12:36:50;;;;;;;6.10;2.72;;;7.40;99.90;;;;;;5066093;28;20064;-58
2022/12/05 12:39:32;;;;;;;10.70;3.35;;;7.50;99.90;;;;;;5067241;28;20040;-57
2022/12/05 12:42:17;;;;;;;8.02;3.25;;;7.50;99.90;;;;;;5069833;28;20373;-59
2022/12/05 12:44:48;;;;;;;5.82;2.40;;;7.40;99.90;;;;;;5052052;28;20045;-62
2022/12/05 12:47:39;;;;;;;12.95;2.78;;;7.50;99.90;;;;;;5049916;28;20545;-62
2022/12/05 12:50:17;;;;;;;7.78;2.80;;;7.40;99.90;;;;;;5069559;28;20051;-62
2022/12/05 12:53:17;;;;;;;7.47;3.15;;;7.40;99.90;;;;;;5062503;28;20052;-64
2022/12/05 12:56:12;;;;;;;;;;;7.40;99.90;;;;;;5039217;28;20516;-62
2022/12/05 12:58:50;;;;;;;7.40;3.10;;;7.40;99.90;;;;;;5061224;28;19920;-61
2022/12/05 13:01:41;;;;;;;11.55;2.28;;;7.40;99.90;;;;;;5069700;28;20391;-62
2022/12/05 13:04:16;;;;;;;14.65;3.17;;;7.40;99.90;;;;;;5068792;28;20605;-59
2022/12/05 13:06:49;;;;;;;9.50;2.88;;;7.40;99.90;;;;;;5060115;28;20060;-60
2022/12/05 13:09:34;;;;;;;10.95;2.78;;;7.40;99.90;;;;;;5065965;28;20040;-60
2022/12/05 13:12:09;;;;;;;7.40;2.17;;;7.40;99.90;;;;;;5069284;28;20045;-62
2022/12/05 13:14:41;;;;;;;6.75;2.58;;;7.40;99.90;;;;;;5069075;28;20052;-59
2022/12/05 13:17:16;;;;;;;8.30;2.42;;;7.40;99.90;;;;;;5068964;28;20067;-58
2022/12/05 13:19:50;;;;;;;9.07;2.58;;;7.40;99.90;;;;;;5047717;28;20041;-59
2022/12/05 13:22:21;;;;;;;7.63;2.50;;;7.40;99.90;;;;;;5057979;28;20049;-58
2022/12/05 13:24:50;;;;;;;11.68;2.83;;;7.50;99.90;;;;;;5068822;28;20527;-58
2022/12/05 13:27:20;;;;;;;9.95;2.45;;;7.50;99.90;;;;;;5068277;28;20045;-59
2022/12/05 13:29:53;;;;;;;7.82;2.60;;;7.50;99.90;;;;;;5068652;28;20048;-58
2022/12/05 13:32:31;;;;;;;4.70;2.60;;;7.50;99.90;;;;;;5066554;28;20040;-59
2022/12/05 13:43:52;;;;;;;6.38;2.92;;;7.40;99.90;;;;;;5068014;28;20051;-59
2022/12/05 13:46:34;;;;;;;4.13;2.53;;;7.40;99.90;;;;;;5062262;28;20056;-59
2022/12/05 13:49:05;;;;;;;8.07;3.03;;;7.40;99.90;;;;;;5062700;28;20040;-60
2022/12/05 13:51:38;;;;;;;6.13;3.05;;;7.50;99.90;;;;;;5067252;28;20533;-58